createdAt,value
2018-11-05T00:00:05.240Z,27.87
2018-11-05T00:00:36.968Z,34.92
2018-11-05T00:01:08.146Z,36.85
2018-11-05T00:01:39.386Z,37.48
2018-11-05T00:02:10.521Z,40.75
2018-11-05T00:02:41.663Z,39.53
2018-11-05T00:03:12.789Z,37.35
2018-11-05T00:03:43.922Z,38.33
2018-11-05T00:04:15.056Z,39.90
2018-11-05T00:04:46.253Z,41.42
2018-11-05T00:05:17.436Z,41.98
2018-11-05T00:05:48.611Z,38.67
2018-11-05T00:06:19.786Z,41.13
2018-11-05T00:06:50.899Z,41.77
2018-11-05T00:07:22.041Z,41.02
2018-11-05T00:07:53.186Z,42.05
2018-11-05T00:08:24.301Z,39.50
2018-11-05T00:08:55.421Z,38.85
2018-11-05T00:09:26.545Z,40.70
2018-11-05T00:09:57.687Z,45.30
2018-11-05T00:10:28.791Z,47.45
2018-11-05T00:10:59.961Z,46.35
2018-11-05T00:11:31.061Z,47.27
2018-11-05T00:12:02.157Z,48.17
2018-11-05T00:12:33.279Z,47.03
2018-11-05T00:13:04.372Z,48.15
2018-11-05T00:13:35.492Z,46.73
2018-11-05T00:14:06.641Z,45.17
2018-11-05T00:14:37.781Z,40.30
2018-11-05T00:15:08.910Z,43.83
2018-11-05T00:15:40.010Z,44.05
2018-11-05T00:16:11.168Z,43.20
2018-11-05T00:16:42.298Z,41.58
2018-11-05T00:17:13.446Z,41.92
2018-11-05T00:17:44.552Z,45.60
2018-11-05T00:18:15.643Z,46.53
2018-11-05T00:18:46.770Z,46.20
2018-11-05T00:19:17.896Z,46.88
2018-11-05T00:19:49.049Z,46.53
2018-11-05T00:20:20.207Z,49.40
2018-11-05T00:20:51.325Z,49.60
2018-11-05T00:21:22.444Z,48.28
2018-11-05T00:21:53.550Z,46.15
2018-11-05T00:22:24.740Z,48.48
2018-11-05T00:22:56.003Z,47.58
2018-11-05T00:23:27.100Z,47.93
2018-11-05T00:23:58.274Z,48.65
2018-11-05T00:24:29.414Z,48.40
2018-11-05T00:25:00.514Z,49.33
2018-11-05T00:25:31.610Z,48.35
2018-11-05T00:26:02.719Z,49.00
2018-11-05T00:26:33.822Z,48.00
2018-11-05T00:27:04.936Z,51.13
2018-11-05T00:27:36.092Z,50.45
2018-11-05T00:28:07.247Z,50.10
2018-11-05T00:28:38.391Z,51.18
2018-11-05T00:29:09.548Z,49.42
2018-11-05T00:29:40.721Z,49.58
2018-11-05T00:30:11.863Z,49.63
2018-11-05T00:30:42.986Z,47.95
2018-11-05T00:31:14.126Z,50.63
2018-11-05T00:31:45.259Z,46.00
2018-11-05T00:32:16.368Z,46.58
2018-11-05T00:32:47.467Z,48.87
2018-11-05T00:33:18.625Z,50.48
2018-11-05T00:33:49.738Z,47.98
2018-11-05T00:34:20.875Z,49.88
2018-11-05T00:34:52.007Z,49.85
2018-11-05T00:35:23.131Z,49.75
2018-11-05T00:35:54.294Z,44.85
2018-11-05T00:36:25.446Z,46.77
2018-11-05T00:36:56.562Z,46.88
2018-11-05T00:37:27.675Z,47.90
2018-11-05T00:37:58.811Z,48.08
2018-11-05T00:38:29.958Z,48.23
2018-11-05T00:39:01.202Z,47.60
2018-11-05T00:39:32.387Z,47.67
2018-11-05T00:40:03.540Z,46.85
2018-11-05T00:40:34.778Z,46.60
2018-11-05T00:41:05.926Z,49.03
2018-11-05T00:41:37.040Z,50.40
2018-11-05T00:42:08.163Z,50.55
2018-11-05T00:42:39.416Z,49.27
2018-11-05T00:43:10.550Z,49.85
2018-11-05T00:43:41.735Z,49.42
2018-11-05T00:44:12.857Z,49.48
2018-11-05T00:44:43.989Z,49.10
2018-11-05T00:45:15.109Z,49.63
2018-11-05T00:45:46.260Z,52.03
2018-11-05T00:46:17.379Z,50.67
2018-11-05T00:46:48.541Z,50.70
2018-11-05T00:47:19.684Z,51.20
2018-11-05T00:47:50.876Z,49.63
2018-11-05T00:48:22.018Z,51.33
2018-11-05T00:48:53.152Z,50.48
2018-11-05T00:49:24.334Z,50.78
2018-11-05T00:49:55.466Z,51.98
2018-11-05T00:50:26.601Z,50.55
2018-11-05T00:50:57.711Z,51.18
2018-11-05T00:51:28.807Z,52.45
2018-11-05T00:51:59.905Z,51.60
2018-11-05T00:52:31.002Z,52.27
2018-11-05T00:53:02.101Z,50.70
2018-11-05T00:53:33.215Z,51.68
2018-11-05T00:54:04.344Z,51.63
2018-11-05T00:54:35.510Z,52.90
2018-11-05T00:55:06.627Z,53.75
2018-11-05T00:55:37.999Z,51.48
2018-11-05T00:56:09.191Z,51.18
2018-11-05T00:56:40.334Z,53.30
2018-11-05T00:57:11.492Z,52.50
2018-11-05T00:57:42.614Z,51.70
2018-11-05T00:58:13.757Z,53.75
2018-11-05T00:58:44.883Z,53.23
2018-11-05T00:59:16.015Z,52.27
2018-11-05T00:59:47.160Z,52.20
2018-11-05T01:00:18.368Z,52.78
2018-11-05T01:00:49.551Z,53.87
2018-11-05T01:01:20.661Z,52.27
2018-11-05T01:01:51.768Z,52.67
2018-11-05T01:02:22.917Z,53.05
2018-11-05T01:02:54.024Z,54.33
2018-11-05T01:03:25.131Z,54.15
2018-11-05T01:03:56.238Z,53.20
2018-11-05T01:04:27.403Z,54.10
2018-11-05T01:04:58.498Z,52.60
2018-11-05T01:05:29.648Z,53.48
2018-11-05T01:06:00.811Z,52.50
2018-11-05T01:06:32.022Z,53.83
2018-11-05T01:07:03.159Z,54.05
2018-11-05T01:07:34.267Z,52.75
2018-11-05T01:08:05.436Z,52.67
2018-11-05T01:08:37.616Z,53.50
2018-11-05T01:09:08.714Z,51.95
2018-11-05T01:09:39.819Z,52.80
2018-11-05T01:10:10.928Z,52.73
2018-11-05T01:10:42.047Z,53.02
2018-11-05T01:11:13.166Z,51.70
2018-11-05T01:11:44.292Z,51.45
2018-11-05T01:12:15.427Z,52.05
2018-11-05T01:12:46.558Z,51.73
2018-11-05T01:13:17.654Z,51.48
2018-11-05T01:13:48.779Z,52.23
2018-11-05T01:14:19.929Z,52.10
2018-11-05T01:14:51.068Z,52.20
2018-11-05T01:15:22.212Z,53.60
2018-11-05T01:15:53.350Z,53.68
2018-11-05T01:16:24.494Z,52.73
2018-11-05T01:16:55.623Z,53.42
2018-11-05T01:17:26.726Z,52.65
2018-11-05T01:17:57.832Z,52.17
2018-11-05T01:18:28.940Z,53.23
2018-11-05T01:19:00.155Z,52.60
2018-11-05T01:19:31.328Z,53.38
2018-11-05T01:20:02.438Z,51.65
2018-11-05T01:20:33.575Z,52.90
2018-11-05T01:21:04.746Z,52.88
2018-11-05T01:21:35.877Z,53.73
2018-11-05T01:22:06.992Z,52.33
2018-11-05T01:22:38.100Z,54.03
2018-11-05T01:23:09.197Z,53.42
2018-11-05T01:23:40.321Z,53.35
2018-11-05T01:24:11.432Z,51.73
2018-11-05T01:24:42.560Z,50.45
2018-11-05T01:25:13.730Z,50.75
2018-11-05T01:25:44.890Z,49.67
2018-11-05T01:26:16.007Z,49.73
2018-11-05T01:26:47.124Z,50.17
2018-11-05T01:27:18.289Z,50.38
2018-11-05T01:27:49.403Z,50.38
2018-11-05T01:28:20.499Z,50.38
2018-11-05T01:28:51.613Z,49.30
2018-11-05T01:29:22.760Z,49.88
2018-11-05T01:29:53.919Z,48.10
2018-11-05T01:30:25.029Z,49.75
2018-11-05T01:30:56.157Z,49.13
2018-11-05T01:31:27.263Z,48.13
2018-11-05T01:31:58.419Z,48.60
2018-11-05T01:32:29.542Z,47.50
2018-11-05T01:33:00.657Z,47.53
2018-11-05T01:33:31.790Z,45.12
2018-11-05T01:34:02.935Z,46.90
2018-11-05T01:34:34.101Z,47.83
2018-11-05T01:35:05.218Z,47.48
2018-11-05T01:35:36.340Z,44.95
2018-11-05T01:36:07.448Z,43.35
2018-11-05T01:36:38.558Z,42.43
2018-11-05T01:37:09.745Z,43.55
2018-11-05T01:37:40.851Z,44.77
2018-11-05T01:38:12.036Z,45.52
2018-11-05T01:38:43.178Z,47.67
2018-11-05T01:39:14.318Z,46.33
2018-11-05T01:39:45.478Z,45.98
2018-11-05T01:40:16.619Z,49.18
2018-11-05T01:40:47.725Z,46.18
2018-11-05T01:41:18.849Z,46.58
2018-11-05T01:41:50.031Z,44.35
2018-11-05T01:42:21.138Z,44.50
2018-11-05T01:42:52.256Z,43.23
2018-11-05T01:43:23.360Z,43.78
2018-11-05T01:43:54.499Z,42.98
2018-11-05T01:44:25.631Z,44.80
2018-11-05T01:44:56.756Z,44.75
2018-11-05T01:45:27.907Z,43.60
2018-11-05T01:45:59.019Z,41.15
2018-11-05T01:46:30.139Z,43.13
2018-11-05T01:47:01.294Z,42.83
2018-11-05T01:47:32.404Z,42.38
2018-11-05T01:48:03.554Z,43.78
2018-11-05T01:48:35.376Z,40.40
2018-11-05T01:49:06.483Z,41.92
2018-11-05T01:49:37.602Z,42.95
2018-11-05T01:50:08.709Z,43.90
2018-11-05T01:50:39.875Z,44.38
2018-11-05T01:51:11.008Z,43.95
2018-11-05T01:51:42.137Z,45.85
2018-11-05T01:52:13.262Z,45.17
2018-11-05T01:52:44.395Z,44.30
2018-11-05T01:53:15.505Z,45.98
2018-11-05T01:53:46.613Z,44.70
2018-11-05T01:54:17.720Z,47.58
2018-11-05T01:54:48.825Z,42.73
2018-11-05T01:55:19.998Z,44.03
2018-11-05T01:55:51.098Z,43.28
2018-11-05T01:56:22.235Z,44.73
2018-11-05T01:56:53.364Z,44.70
2018-11-05T01:57:24.491Z,43.58
2018-11-05T01:57:55.635Z,44.73
2018-11-05T01:58:26.760Z,43.92
2018-11-05T01:58:57.884Z,44.42
2018-11-05T01:59:29.006Z,45.60
2018-11-05T02:00:00.120Z,46.68
2018-11-05T02:00:31.275Z,47.65
2018-11-05T02:01:02.398Z,48.02
2018-11-05T02:01:33.558Z,47.03
2018-11-05T02:02:04.702Z,48.73
2018-11-05T02:02:35.858Z,50.23
2018-11-05T02:03:07.028Z,47.93
2018-11-05T02:03:38.150Z,48.63
2018-11-05T02:04:09.261Z,49.08
2018-11-05T02:04:40.390Z,48.38
2018-11-05T02:05:11.534Z,49.13
2018-11-05T02:05:42.644Z,47.60
2018-11-05T02:06:13.770Z,47.78
2018-11-05T02:06:44.894Z,49.42
2018-11-05T02:07:16.047Z,48.00
2018-11-05T02:07:47.167Z,47.17
2018-11-05T02:08:18.298Z,49.65
2018-11-05T02:08:49.389Z,49.35
2018-11-05T02:09:20.495Z,48.60
2018-11-05T02:09:51.623Z,49.23
2018-11-05T02:10:22.788Z,49.30
2018-11-05T02:10:53.900Z,51.35
2018-11-05T02:11:25.028Z,49.15
2018-11-05T02:11:56.171Z,48.85
2018-11-05T02:12:27.349Z,49.50
2018-11-05T02:12:58.477Z,51.00
2018-11-05T02:13:29.620Z,49.25
2018-11-05T02:14:00.755Z,51.55
2018-11-05T02:14:31.996Z,51.73
2018-11-05T02:15:03.107Z,51.45
2018-11-05T02:15:34.213Z,51.25
2018-11-05T02:16:05.410Z,50.17
2018-11-05T02:16:36.478Z,50.58
2018-11-05T02:17:07.643Z,50.48
2018-11-05T02:17:38.761Z,51.15
2018-11-05T02:18:09.876Z,51.63
2018-11-05T02:18:41.027Z,53.35
2018-11-05T02:19:12.190Z,49.53
2018-11-05T02:19:43.372Z,50.80
2018-11-05T02:20:14.495Z,51.10
2018-11-05T02:20:45.656Z,51.63
2018-11-05T02:21:16.758Z,52.20
2018-11-05T02:21:47.876Z,52.53
2018-11-05T02:22:19.017Z,49.58
2018-11-05T02:22:50.147Z,52.83
2018-11-05T02:23:21.247Z,52.50
2018-11-05T02:23:52.357Z,51.25
2018-11-05T02:24:23.472Z,50.33
2018-11-05T02:24:54.720Z,50.65
2018-11-05T02:25:26.168Z,52.55
2018-11-05T02:25:57.298Z,52.58
2018-11-05T02:26:28.429Z,50.45
2018-11-05T02:26:59.635Z,52.45
2018-11-05T02:27:30.734Z,50.55
2018-11-05T02:28:01.830Z,50.95
2018-11-05T02:28:32.933Z,50.85
2018-11-05T02:29:04.072Z,52.15
2018-11-05T02:29:35.193Z,52.33
2018-11-05T02:30:06.386Z,53.05
2018-11-05T02:30:37.487Z,52.93
2018-11-05T02:31:08.626Z,51.10
2018-11-05T02:31:39.730Z,51.25
2018-11-05T02:32:10.841Z,50.55
2018-11-05T02:32:41.976Z,50.35
2018-11-05T02:33:13.127Z,50.00
2018-11-05T02:33:44.250Z,51.58
2018-11-05T02:34:15.394Z,50.10
2018-11-05T02:34:46.511Z,52.38
2018-11-05T02:35:17.698Z,52.53
2018-11-05T02:35:48.831Z,52.13
2018-11-05T02:36:19.936Z,50.35
2018-11-05T02:36:51.074Z,52.10
2018-11-05T02:37:22.198Z,52.93
2018-11-05T02:37:53.332Z,52.45
2018-11-05T02:38:24.493Z,52.93
2018-11-05T02:38:55.617Z,53.23
2018-11-05T02:39:26.745Z,54.27
2018-11-05T02:39:57.867Z,55.17
2018-11-05T02:40:29.002Z,55.35
2018-11-05T02:41:00.138Z,55.10
2018-11-05T02:41:31.252Z,50.88
2018-11-05T02:42:02.368Z,52.58
2018-11-05T02:42:33.483Z,55.05
2018-11-05T02:43:04.611Z,52.30
2018-11-05T02:43:35.763Z,54.45
2018-11-05T02:44:06.920Z,53.45
2018-11-05T02:44:38.031Z,56.85
2018-11-05T02:45:09.130Z,57.35
2018-11-05T02:45:40.280Z,57.90
2018-11-05T02:46:11.438Z,57.98
2018-11-05T02:46:42.551Z,58.52
2018-11-05T02:47:13.680Z,57.93
2018-11-05T02:47:44.806Z,56.33
2018-11-05T02:48:15.931Z,57.58
2018-11-05T02:48:47.150Z,57.83
2018-11-05T02:49:18.260Z,57.85
2018-11-05T02:49:49.386Z,56.70
2018-11-05T02:50:20.500Z,57.53
2018-11-05T02:50:51.612Z,59.23
2018-11-05T02:51:22.804Z,56.48
2018-11-05T02:51:53.933Z,57.58
2018-11-05T02:52:25.036Z,56.75
2018-11-05T02:52:56.134Z,59.13
2018-11-05T02:53:27.231Z,57.93
2018-11-05T02:53:58.350Z,56.73
2018-11-05T02:54:29.467Z,57.38
2018-11-05T02:55:00.571Z,57.98
2018-11-05T02:55:31.728Z,58.17
2018-11-05T02:56:02.850Z,59.00
2018-11-05T02:56:33.983Z,56.98
2018-11-05T02:57:05.983Z,56.28
2018-11-05T02:57:37.112Z,56.80
2018-11-05T02:58:08.268Z,57.05
2018-11-05T02:58:39.406Z,58.42
2018-11-05T02:59:10.542Z,57.60
2018-11-05T02:59:41.647Z,57.48
2018-11-05T03:00:12.755Z,60.60
2018-11-05T03:00:43.891Z,60.83
2018-11-05T03:01:15.007Z,59.63
2018-11-05T03:01:46.181Z,59.93
2018-11-05T03:02:17.296Z,58.85
2018-11-05T03:02:48.433Z,59.88
2018-11-05T03:03:19.582Z,59.55
2018-11-05T03:03:50.691Z,56.95
2018-11-05T03:04:21.816Z,59.27
2018-11-05T03:04:52.995Z,58.52
2018-11-05T03:05:24.152Z,56.58
2018-11-05T03:05:55.261Z,57.03
2018-11-05T03:06:26.397Z,58.70
2018-11-05T03:06:57.526Z,56.18
2018-11-05T03:07:28.626Z,56.13
2018-11-05T03:07:59.724Z,57.27
2018-11-05T03:08:30.876Z,56.50
2018-11-05T03:09:02.028Z,55.63
2018-11-05T03:09:33.150Z,55.17
2018-11-05T03:10:04.277Z,55.45
2018-11-05T03:10:35.421Z,55.88
2018-11-05T03:11:06.527Z,53.58
2018-11-05T03:11:37.640Z,54.25
2018-11-05T03:12:08.764Z,53.80
2018-11-05T03:12:39.889Z,54.73
2018-11-05T03:13:11.022Z,55.52
2018-11-05T03:13:42.149Z,53.40
2018-11-05T03:14:13.238Z,55.00
2018-11-05T03:14:44.332Z,58.52
2018-11-05T03:15:15.433Z,56.37
2018-11-05T03:15:46.576Z,55.12
2018-11-05T03:16:17.749Z,52.80
2018-11-05T03:16:48.850Z,56.42
2018-11-05T03:17:19.947Z,55.50
2018-11-05T03:17:51.063Z,53.78
2018-11-05T03:18:22.208Z,55.63
2018-11-05T03:18:53.319Z,56.77
2018-11-05T03:19:24.431Z,54.50
2018-11-05T03:19:55.553Z,51.23
2018-11-05T03:20:26.689Z,51.53
2018-11-05T03:20:57.822Z,53.33
2018-11-05T03:21:28.981Z,53.15
2018-11-05T03:22:00.108Z,53.08
2018-11-05T03:22:31.243Z,53.98
2018-11-05T03:23:02.438Z,50.52
2018-11-05T03:23:33.576Z,51.25
2018-11-05T03:24:04.684Z,51.80
2018-11-05T03:24:35.794Z,51.92
2018-11-05T03:25:07.013Z,49.93
2018-11-05T03:25:38.172Z,51.30
2018-11-05T03:26:09.298Z,52.08
2018-11-05T03:26:40.448Z,53.13
2018-11-05T03:27:11.609Z,50.65
2018-11-05T03:27:42.761Z,51.42
2018-11-05T03:28:13.892Z,49.35
2018-11-05T03:28:45.005Z,49.80
2018-11-05T03:29:16.158Z,50.88
2018-11-05T03:29:47.290Z,50.25
2018-11-05T03:30:18.408Z,49.20
2018-11-05T03:30:49.539Z,47.78
2018-11-05T03:31:20.698Z,48.28
2018-11-05T03:31:51.829Z,49.30
2018-11-05T03:32:22.990Z,45.90
2018-11-05T03:32:54.133Z,45.88
2018-11-05T03:33:25.891Z,48.73
2018-11-05T03:33:57.012Z,46.35
2018-11-05T03:34:28.148Z,46.80
2018-11-05T03:34:59.264Z,47.98
2018-11-05T03:35:30.392Z,48.70
2018-11-05T03:36:01.581Z,46.60
2018-11-05T03:36:32.693Z,48.65
2018-11-05T03:37:03.844Z,47.08
2018-11-05T03:37:34.953Z,46.80
2018-11-05T03:38:06.099Z,46.98
2018-11-05T03:38:37.226Z,45.88
2018-11-05T03:39:08.323Z,45.75
2018-11-05T03:39:39.448Z,46.35
2018-11-05T03:40:10.579Z,47.13
2018-11-05T03:40:41.703Z,48.13
2018-11-05T03:41:12.813Z,46.77
2018-11-05T03:41:43.965Z,46.10
2018-11-05T03:42:15.148Z,47.10
2018-11-05T03:42:46.257Z,46.18
2018-11-05T03:43:17.357Z,45.92
2018-11-05T03:43:48.509Z,47.40
2018-11-05T03:44:19.624Z,44.93
2018-11-05T03:44:50.767Z,46.58
2018-11-05T03:45:21.950Z,44.60
2018-11-05T03:45:53.093Z,43.92
2018-11-05T03:46:24.220Z,43.85
2018-11-05T03:46:55.324Z,45.38
2018-11-05T03:47:26.478Z,44.15
2018-11-05T03:47:57.617Z,44.20
2018-11-05T03:48:28.742Z,44.33
2018-11-05T03:48:59.850Z,45.75
2018-11-05T03:49:30.968Z,44.35
2018-11-05T03:50:02.097Z,43.78
2018-11-05T03:50:33.227Z,44.63
2018-11-05T03:51:04.349Z,42.50
2018-11-05T03:51:35.483Z,43.50
2018-11-05T03:52:06.659Z,43.58
2018-11-05T03:52:37.769Z,45.23
2018-11-05T03:53:08.866Z,43.40
2018-11-05T03:53:40.018Z,44.67
2018-11-05T03:54:11.198Z,44.13
2018-11-05T03:54:42.321Z,42.35
2018-11-05T03:55:13.478Z,43.10
2018-11-05T03:55:44.650Z,44.00
2018-11-05T03:56:15.878Z,45.48
2018-11-05T03:56:46.974Z,43.25
2018-11-05T03:57:18.007Z,43.48
2018-11-05T03:57:49.142Z,44.20
2018-11-05T03:58:20.254Z,44.23
2018-11-05T03:58:51.380Z,43.80
2018-11-05T03:59:22.548Z,43.15
2018-11-05T03:59:53.666Z,44.45
2018-11-05T04:00:24.791Z,44.08
2018-11-05T04:00:55.893Z,43.52
2018-11-05T04:01:27.044Z,43.90
2018-11-05T04:01:58.166Z,43.40
2018-11-05T04:02:29.294Z,41.63
2018-11-05T04:03:00.419Z,44.00
2018-11-05T04:03:31.589Z,43.15
2018-11-05T04:04:02.736Z,42.35
2018-11-05T04:04:33.889Z,43.60
2018-11-05T04:05:05.009Z,43.83
2018-11-05T04:05:36.787Z,43.02
2018-11-05T04:06:07.926Z,43.73
2018-11-05T04:06:39.066Z,43.83
2018-11-05T04:07:10.206Z,44.15
2018-11-05T04:07:41.333Z,43.45
2018-11-05T04:08:12.473Z,41.80
2018-11-05T04:08:43.614Z,43.70
2018-11-05T04:09:14.753Z,42.90
2018-11-05T04:09:45.926Z,43.40
2018-11-05T04:10:17.044Z,43.30
2018-11-05T04:10:48.202Z,41.10
2018-11-05T04:11:19.352Z,41.60
2018-11-05T04:11:50.502Z,42.65
2018-11-05T04:12:21.617Z,41.92
2018-11-05T04:12:52.742Z,42.17
2018-11-05T04:13:23.907Z,42.25
2018-11-05T04:13:55.037Z,41.30
2018-11-05T04:14:26.158Z,40.50
2018-11-05T04:14:57.337Z,42.53
2018-11-05T04:15:28.530Z,41.58
2018-11-05T04:15:59.593Z,42.65
2018-11-05T04:16:30.720Z,42.65
2018-11-05T04:17:01.822Z,41.37
2018-11-05T04:17:32.935Z,41.42
2018-11-05T04:18:04.074Z,41.53
2018-11-05T04:18:35.174Z,42.65
2018-11-05T04:19:06.282Z,41.50
2018-11-05T04:19:37.399Z,42.58
2018-11-05T04:20:08.515Z,41.55
2018-11-05T04:20:39.692Z,41.35
2018-11-05T04:21:10.903Z,42.45
2018-11-05T04:21:42.046Z,40.60
2018-11-05T04:22:13.177Z,40.75
2018-11-05T04:22:44.290Z,42.48
2018-11-05T04:23:15.418Z,41.73
2018-11-05T04:23:46.548Z,42.33
2018-11-05T04:24:17.691Z,41.00
2018-11-05T04:24:48.827Z,40.30
2018-11-05T04:25:19.970Z,40.23
2018-11-05T04:25:51.087Z,41.13
2018-11-05T04:26:22.245Z,40.55
2018-11-05T04:26:53.386Z,41.63
2018-11-05T04:27:24.496Z,40.70
2018-11-05T04:27:55.696Z,37.98
2018-11-05T04:28:26.744Z,37.28
2018-11-05T04:28:57.928Z,40.28
2018-11-05T04:29:29.031Z,40.63
2018-11-05T04:30:00.144Z,38.15
2018-11-05T04:30:31.294Z,39.67
2018-11-05T04:31:02.405Z,37.63
2018-11-05T04:31:33.568Z,37.67
2018-11-05T04:32:04.715Z,37.33
2018-11-05T04:32:35.832Z,39.33
2018-11-05T04:33:06.966Z,37.53
2018-11-05T04:33:38.072Z,37.93
2018-11-05T04:34:09.187Z,39.78
2018-11-05T04:34:40.287Z,36.85
2018-11-05T04:35:11.423Z,36.58
2018-11-05T04:35:42.608Z,39.55
2018-11-05T04:36:13.718Z,37.65
2018-11-05T04:36:44.824Z,38.10
2018-11-05T04:37:15.918Z,37.93
2018-11-05T04:37:47.044Z,36.73
2018-11-05T04:38:18.170Z,35.70
2018-11-05T04:38:49.271Z,36.58
2018-11-05T04:39:20.370Z,38.20
2018-11-05T04:39:51.488Z,37.48
2018-11-05T04:40:22.660Z,38.05
2018-11-05T04:40:53.817Z,38.70
2018-11-05T04:41:24.986Z,38.78
2018-11-05T04:41:56.126Z,38.38
2018-11-05T04:42:27.259Z,37.73
2018-11-05T04:42:58.378Z,37.93
2018-11-05T04:43:29.573Z,38.70
2018-11-05T04:44:00.721Z,36.45
2018-11-05T04:44:31.867Z,37.33
2018-11-05T04:45:03.005Z,37.70
2018-11-05T04:45:34.180Z,37.83
2018-11-05T04:46:05.327Z,37.83
2018-11-05T04:46:36.475Z,38.92
2018-11-05T04:47:07.635Z,38.75
2018-11-05T04:47:38.798Z,38.92
2018-11-05T04:48:09.919Z,39.85
2018-11-05T04:48:41.034Z,39.10
2018-11-05T04:49:12.144Z,37.93
2018-11-05T04:49:43.299Z,37.53
2018-11-05T04:50:14.427Z,39.80
2018-11-05T04:50:45.527Z,39.20
2018-11-05T04:51:16.654Z,38.78
2018-11-05T04:51:47.823Z,37.35
2018-11-05T04:52:18.952Z,39.42
2018-11-05T04:52:50.059Z,38.65
2018-11-05T04:53:21.199Z,38.88
2018-11-05T04:53:52.303Z,38.75
2018-11-05T04:54:23.431Z,38.63
2018-11-05T04:54:54.566Z,38.48
2018-11-05T04:55:25.690Z,39.60
2018-11-05T04:55:56.825Z,39.70
2018-11-05T04:56:27.955Z,38.20
2018-11-05T04:56:59.103Z,37.75
2018-11-05T04:57:30.209Z,38.67
2018-11-05T04:58:01.360Z,37.58
2018-11-05T04:58:32.472Z,37.58
2018-11-05T04:59:03.576Z,38.28
2018-11-05T04:59:34.709Z,35.85
2018-11-05T05:00:05.847Z,38.33
2018-11-05T05:00:36.983Z,36.83
2018-11-05T05:01:08.103Z,37.78
2018-11-05T05:01:39.253Z,36.33
2018-11-05T05:02:10.436Z,34.45
2018-11-05T05:02:41.566Z,35.65
2018-11-05T05:03:12.710Z,35.73
2018-11-05T05:03:43.827Z,33.65
2018-11-05T05:04:14.960Z,33.92
2018-11-05T05:04:46.094Z,33.67
2018-11-05T05:05:17.225Z,35.23
2018-11-05T05:05:48.359Z,33.75
2018-11-05T05:06:19.490Z,33.00
2018-11-05T05:06:50.633Z,33.13
2018-11-05T05:07:21.812Z,32.88
2018-11-05T05:07:52.950Z,32.95
2018-11-05T05:08:24.062Z,32.25
2018-11-05T05:08:55.198Z,32.93
2018-11-05T05:09:26.338Z,33.38
2018-11-05T05:09:57.462Z,32.42
2018-11-05T05:10:28.583Z,29.65
2018-11-05T05:10:59.776Z,29.42
2018-11-05T05:11:30.893Z,28.65
2018-11-05T05:12:02.005Z,29.42
2018-11-05T05:12:33.204Z,30.17
2018-11-05T05:13:04.305Z,28.77
2018-11-05T05:13:35.419Z,28.77
2018-11-05T05:14:06.554Z,27.82
2018-11-05T05:14:37.700Z,28.05
2018-11-05T05:15:08.864Z,27.48
2018-11-05T05:15:39.997Z,25.97
2018-11-05T05:16:11.144Z,26.85
2018-11-05T05:16:42.315Z,28.73
2018-11-05T05:17:13.426Z,29.80
2018-11-05T05:17:44.579Z,25.35
2018-11-05T05:18:15.700Z,25.62
2018-11-05T05:18:46.823Z,24.52
2018-11-05T05:19:17.998Z,24.75
2018-11-05T05:19:49.139Z,27.17
2018-11-05T05:20:20.294Z,27.15
2018-11-05T05:20:51.413Z,27.80
2018-11-05T05:21:22.573Z,27.85
2018-11-05T05:21:53.734Z,26.80
2018-11-05T05:22:24.854Z,24.02
2018-11-05T05:22:56.205Z,24.18
2018-11-05T05:23:27.203Z,24.12
2018-11-05T05:23:58.355Z,24.60
2018-11-05T05:24:29.548Z,25.45
2018-11-05T05:25:00.670Z,25.05
2018-11-05T05:25:31.792Z,25.20
2018-11-05T05:26:02.933Z,23.90
2018-11-05T05:26:34.067Z,24.02
2018-11-05T05:27:05.180Z,24.23
2018-11-05T05:27:36.278Z,24.72
2018-11-05T05:28:07.381Z,23.73
2018-11-05T05:28:38.481Z,25.37
2018-11-05T05:29:09.606Z,25.05
2018-11-05T05:29:40.798Z,23.65
2018-11-05T05:30:11.898Z,24.37
2018-11-05T05:30:43.020Z,25.62
2018-11-05T05:31:14.127Z,24.00
2018-11-05T05:31:45.248Z,23.62
2018-11-05T05:32:16.423Z,23.73
2018-11-05T05:32:47.554Z,23.85
2018-11-05T05:33:18.710Z,23.35
2018-11-05T05:33:49.819Z,22.70
2018-11-05T05:34:20.946Z,23.62
2018-11-05T05:34:52.058Z,23.05
2018-11-05T05:35:23.201Z,21.65
2018-11-05T05:35:54.361Z,21.55
2018-11-05T05:36:25.489Z,21.73
2018-11-05T05:36:56.586Z,19.75
2018-11-05T05:37:27.758Z,21.77
2018-11-05T05:37:58.887Z,20.85
2018-11-05T05:38:30.031Z,20.90
2018-11-05T05:39:01.143Z,19.65
2018-11-05T05:39:32.259Z,20.85
2018-11-05T05:40:03.393Z,19.82
2018-11-05T05:40:34.660Z,17.65
2018-11-05T05:41:05.830Z,19.20
2018-11-05T05:41:36.966Z,19.98
2018-11-05T05:42:08.084Z,20.82
2018-11-05T05:42:39.239Z,18.60
2018-11-05T05:43:10.404Z,19.82
2018-11-05T05:43:41.532Z,20.27
2018-11-05T05:44:12.711Z,19.20
2018-11-05T05:44:43.864Z,19.15
2018-11-05T05:45:14.986Z,19.87
2018-11-05T05:45:46.087Z,20.77
2018-11-05T05:46:17.196Z,20.35
2018-11-05T05:46:48.358Z,21.15
2018-11-05T05:47:19.513Z,19.70
2018-11-05T05:47:50.635Z,19.92
2018-11-05T05:48:21.771Z,19.45
2018-11-05T05:48:53.017Z,19.12
2018-11-05T05:49:24.181Z,20.05
2018-11-05T05:49:55.347Z,20.57
2018-11-05T05:50:26.469Z,21.73
2018-11-05T05:50:57.600Z,21.27
2018-11-05T05:51:28.710Z,21.02
2018-11-05T05:51:59.856Z,22.55
2018-11-05T05:52:31.009Z,21.05
2018-11-05T05:53:02.130Z,20.15
2018-11-05T05:53:33.304Z,21.10
2018-11-05T05:54:04.405Z,20.25
2018-11-05T05:54:35.529Z,20.43
2018-11-05T05:55:06.665Z,19.02
2018-11-05T05:55:37.795Z,19.30
2018-11-05T05:56:08.977Z,19.05
2018-11-05T05:56:40.118Z,20.10
2018-11-05T05:57:11.323Z,20.10
2018-11-05T05:57:42.512Z,18.48
2018-11-05T05:58:13.653Z,19.55
2018-11-05T05:58:44.827Z,19.87
2018-11-05T05:59:15.954Z,20.23
2018-11-05T05:59:47.080Z,19.10
2018-11-05T06:00:18.230Z,18.73
2018-11-05T06:00:49.375Z,18.98
2018-11-05T06:01:20.511Z,17.48
2018-11-05T06:01:51.642Z,17.23
2018-11-05T06:02:22.813Z,18.17
2018-11-05T06:02:53.949Z,17.25
2018-11-05T06:03:25.081Z,16.80
2018-11-05T06:03:56.227Z,15.65
2018-11-05T06:04:27.363Z,14.10
2018-11-05T06:04:58.470Z,15.45
2018-11-05T06:05:29.621Z,15.80
2018-11-05T06:06:00.801Z,15.13
2018-11-05T06:06:31.987Z,15.65
2018-11-05T06:07:03.053Z,16.05
2018-11-05T06:07:34.151Z,14.90
2018-11-05T06:08:05.255Z,14.65
2018-11-05T06:08:36.388Z,15.43
2018-11-05T06:09:07.497Z,15.98
2018-11-05T06:09:38.633Z,15.60
2018-11-05T06:10:09.762Z,15.43
2018-11-05T06:10:40.902Z,16.55
2018-11-05T06:11:12.045Z,17.07
2018-11-05T06:11:43.158Z,17.30
2018-11-05T06:12:14.328Z,16.37
2018-11-05T06:12:45.502Z,16.45
2018-11-05T06:13:16.648Z,17.17
2018-11-05T06:13:47.759Z,16.50
2018-11-05T06:14:18.864Z,17.20
2018-11-05T06:14:50.034Z,17.85
2018-11-05T06:15:21.206Z,16.75
2018-11-05T06:15:52.360Z,16.10
2018-11-05T06:16:23.468Z,16.32
2018-11-05T06:16:54.609Z,16.77
2018-11-05T06:17:25.766Z,15.60
2018-11-05T06:17:56.874Z,16.48
2018-11-05T06:18:27.980Z,16.10
2018-11-05T06:18:59.120Z,16.48
2018-11-05T06:19:30.284Z,16.00
2018-11-05T06:20:01.434Z,17.20
2018-11-05T06:20:32.630Z,16.23
2018-11-05T06:21:03.746Z,16.25
2018-11-05T06:21:34.950Z,17.00
2018-11-05T06:22:06.053Z,16.85
2018-11-05T06:22:37.194Z,17.15
2018-11-05T06:23:08.307Z,16.65
2018-11-05T06:23:39.443Z,15.70
2018-11-05T06:24:10.564Z,16.50
2018-11-05T06:24:41.691Z,15.53
2018-11-05T06:25:12.804Z,15.50
2018-11-05T06:25:43.923Z,16.27
2018-11-05T06:26:15.049Z,15.40
2018-11-05T06:26:46.227Z,16.05
2018-11-05T06:27:17.386Z,16.35
2018-11-05T06:27:48.503Z,15.88
2018-11-05T06:28:19.753Z,17.00
2018-11-05T06:28:50.809Z,17.80
2018-11-05T06:29:21.919Z,16.15
2018-11-05T06:29:53.055Z,16.27
2018-11-05T06:30:24.211Z,16.15
2018-11-05T06:30:55.331Z,17.00
2018-11-05T06:31:26.471Z,16.32
2018-11-05T06:31:57.645Z,16.85
2018-11-05T06:32:28.762Z,16.20
2018-11-05T06:32:59.900Z,17.57
2018-11-05T06:33:31.043Z,16.95
2018-11-05T06:34:02.164Z,16.45
2018-11-05T06:34:33.287Z,15.85
2018-11-05T06:35:04.403Z,15.83
2018-11-05T06:35:35.550Z,16.48
2018-11-05T06:36:06.699Z,16.25
2018-11-05T06:36:37.845Z,17.07
2018-11-05T06:37:08.954Z,14.90
2018-11-05T06:37:40.047Z,15.13
2018-11-05T06:38:11.190Z,16.17
2018-11-05T06:38:42.304Z,16.87
2018-11-05T06:39:13.423Z,15.85
2018-11-05T06:39:44.547Z,12.82
2018-11-05T06:40:15.646Z,13.95
2018-11-05T06:40:46.794Z,13.00